MackenzieRodgers' ATC Tracking Thread [CLOSED]

G’Day,

I’m currently controlling Sydney International Airport (YSSY) on TS1.

Sydney Kingsford Smith Airport (30/04/18)


Here’s some information before you spawn in:

  • Expect 16R and 16L
  • Pattern work accepted ✅
  • Follow ATC instructions - general procedures are enforced by violations (unlike casual server)

YSSY 300700Z 18015KT 9999 FEW018 SCT055 18/14 Q1023 NOSIG


METAR Report - Summary

Location: YSSY
Day of month: 30
Time: 07:00 UTC
Wind: True direction = 180 degrees, Speed: 15 knots
Visibility: 10 km or more
Clouds: A few , at 1800 feet above aerodrome level
Clouds: Scattered , at 5500 feet above aerodrome level
Temperature: 18 degrees Celsius
Dewpoint: 14 degrees Celsius
QNH (Sea-level pressure): 1023 hPa
No significant changes expected in the near future

2 Likes

I can drop by… do you want me in a prop or jet !!!

Your choice, mate! ✈️

1 Like

Thanks for joining me everyone, over 50 operations were completed in that session! ✈️

4 Likes

We’re open again at YSSY - Training Server 1. Hope to see you there!

Updated Information in main thread!

This topic was automatically closed 90 days after the last reply. New replies are no longer allowed.